createdAt,value
2022-11-04T00:01:27.656Z,6.7
2022-11-04T00:03:54.271Z,5.7
2022-11-04T00:06:20.910Z,5.6
2022-11-04T00:08:47.518Z,5.4
2022-11-04T00:11:14.155Z,6
2022-11-04T00:13:39.291Z,6.1
2022-11-04T00:16:05.919Z,5.6
2022-11-04T00:18:31.047Z,5.7
2022-11-04T00:23:24.286Z,4.6
2022-11-04T00:28:17.533Z,4.2
2022-11-04T00:30:44.151Z,3.5
2022-11-04T00:33:10.774Z,3.6
2022-11-04T00:35:37.393Z,3.3
2022-11-04T00:38:04.044Z,3.2
2022-11-04T00:40:30.663Z,3.2
2022-11-04T00:42:57.269Z,3.5
2022-11-04T00:45:23.905Z,3
2022-11-04T00:47:49.029Z,2.9
2022-11-04T00:52:40.832Z,2.8
2022-11-04T00:55:07.405Z,2.5
2022-11-04T00:57:34.025Z,2.7
2022-11-04T01:00:00.654Z,3.3
2022-11-04T01:02:27.273Z,2.2
2022-11-04T01:07:20.552Z,2.6
2022-11-04T01:09:47.146Z,2.4
2022-11-04T01:12:13.777Z,2.7
2022-11-04T01:14:40.380Z,2.6
2022-11-04T01:17:07.031Z,2.8
2022-11-04T01:22:00.281Z,2.1
2022-11-04T01:26:52.016Z,2.4
2022-11-04T01:29:17.186Z,2.1
2022-11-04T01:31:42.292Z,3
2022-11-04T01:36:35.518Z,2.4
2022-11-04T01:39:02.252Z,2
2022-11-04T01:43:55.421Z,2.2
2022-11-04T01:46:22.006Z,2.9
2022-11-04T01:51:15.267Z,2.5
2022-11-04T01:56:08.497Z,2
2022-11-04T01:58:35.134Z,1.9
2022-11-04T02:01:01.821Z,1.8
2022-11-04T02:05:53.513Z,1.9
2022-11-04T02:08:20.300Z,2
2022-11-04T02:10:46.759Z,1.9
2022-11-04T02:13:13.375Z,1.9
2022-11-04T02:15:40.038Z,1.7
2022-11-04T02:20:33.275Z,1.5
2022-11-04T02:25:26.252Z,1.7
2022-11-04T02:27:52.881Z,2
2022-11-04T02:30:19.485Z,1.7
2022-11-04T02:35:12.743Z,1.8
2022-11-04T02:40:04.561Z,1.6
2022-11-04T02:42:31.110Z,1.6
2022-11-04T02:49:51.021Z,1.9
2022-11-04T02:54:44.225Z,1.8
2022-11-04T02:57:10.864Z,1.7
2022-11-04T02:59:37.490Z,1.6
2022-11-04T03:04:30.733Z,1.6
2022-11-04T03:11:50.608Z,2.1
2022-11-04T03:14:15.717Z,1.6
2022-11-04T03:16:42.345Z,1.7
2022-11-04T03:19:08.973Z,1.8
2022-11-04T03:21:35.587Z,2.1
2022-11-04T03:24:02.207Z,2
2022-11-04T03:26:28.846Z,1.9
2022-11-04T03:28:55.455Z,1.7
2022-11-04T03:31:22.097Z,1.9
2022-11-04T03:38:41.953Z,1.9
2022-11-04T03:41:08.712Z,1.7
2022-11-04T03:48:28.443Z,1.9
2022-11-04T03:50:53.589Z,1.8
2022-11-04T03:53:20.274Z,2.1
2022-11-04T03:55:46.843Z,1.7
2022-11-04T03:58:13.447Z,1.5
2022-11-04T04:03:06.685Z,1.6
2022-11-04T04:05:33.355Z,1.4
2022-11-04T04:10:26.575Z,1.5
2022-11-04T04:12:53.188Z,1.5
2022-11-04T04:15:19.798Z,1.4
2022-11-04T04:17:46.434Z,1.7
2022-11-04T04:20:13.044Z,1.3
2022-11-04T04:25:04.866Z,1.6
2022-11-04T04:27:31.422Z,2.2
2022-11-04T04:34:51.290Z,1.5
2022-11-04T04:37:17.928Z,1.6
2022-11-04T04:39:44.563Z,1.5
2022-11-04T04:42:11.154Z,1.5
2022-11-04T04:49:31.131Z,2.5
2022-11-04T04:51:57.717Z,1.6
2022-11-04T04:54:24.296Z,1.6
2022-11-04T04:59:16.027Z,1.6
2022-11-04T05:01:42.651Z,1.8
2022-11-04T05:04:09.317Z,2.3
2022-11-04T05:06:35.892Z,2.1
2022-11-04T05:09:02.511Z,1.8
2022-11-04T05:16:22.383Z,2.6
2022-11-04T05:18:49.006Z,2.5
2022-11-04T05:23:42.305Z,2.3
2022-11-04T05:26:08.867Z,2.1
2022-11-04T05:28:34.004Z,2.2
2022-11-04T05:31:00.626Z,2.4
2022-11-04T05:33:27.240Z,2.3
2022-11-04T05:38:20.504Z,2
2022-11-04T05:40:47.126Z,2
2022-11-04T05:43:13.746Z,1.8
2022-11-04T05:45:40.372Z,1.6
2022-11-04T05:48:06.979Z,2.6
2022-11-04T05:50:33.601Z,2.3
2022-11-04T05:53:00.245Z,2.7
2022-11-04T05:55:26.852Z,2.4
2022-11-04T05:57:53.474Z,2.3
2022-11-04T06:00:18.625Z,2.6
2022-11-04T06:02:45.279Z,2.3
2022-11-04T06:05:11.858Z,2.5
2022-11-04T06:07:38.472Z,2.1
2022-11-04T06:10:05.099Z,1.9
2022-11-04T06:12:31.721Z,2.1
2022-11-04T06:14:56.872Z,1.8
2022-11-04T06:17:21.983Z,2
2022-11-04T06:19:48.609Z,2.1
2022-11-04T06:22:15.236Z,2.5
2022-11-04T06:24:42.109Z,1.7
2022-11-04T06:27:08.498Z,2.1
2022-11-04T06:29:35.115Z,2.1
2022-11-04T06:32:01.724Z,2
2022-11-04T06:36:55.025Z,2.3
2022-11-04T06:39:21.620Z,2
2022-11-04T06:41:48.223Z,2.4
2022-11-04T06:44:14.848Z,2.7
2022-11-04T06:46:41.564Z,2.3
2022-11-04T06:49:06.649Z,2.6
2022-11-04T06:51:33.204Z,3
2022-11-04T06:53:59.856Z,3.5
2022-11-04T06:56:26.522Z,2.4
2022-11-04T06:58:53.078Z,3
2022-11-04T07:01:19.697Z,2.6
2022-11-04T07:03:46.324Z,2.2
2022-11-04T07:06:13.229Z,2.3
2022-11-04T07:08:38.088Z,2.2
2022-11-04T07:11:03.201Z,2.8
2022-11-04T07:13:29.887Z,3.2
2022-11-04T07:15:56.519Z,2.4
2022-11-04T07:18:23.075Z,2.3
2022-11-04T07:20:49.716Z,3.4
2022-11-04T07:25:42.959Z,2.9
2022-11-04T07:28:09.568Z,3.3
2022-11-04T07:30:36.201Z,3.3
2022-11-04T07:33:02.822Z,3
2022-11-04T07:35:29.460Z,3.6
2022-11-04T07:37:56.056Z,4.1
2022-11-04T07:40:22.750Z,3.9
2022-11-04T07:42:49.342Z,3.6
2022-11-04T07:45:14.420Z,3.4
2022-11-04T07:47:41.117Z,2.9
2022-11-04T07:50:07.697Z,2.9
2022-11-04T07:52:34.308Z,3.1
2022-11-04T07:55:00.922Z,3.5
2022-11-04T07:57:27.559Z,4.1
2022-11-04T08:02:20.818Z,4
2022-11-04T08:04:47.698Z,4.1
2022-11-04T08:07:14.151Z,4.1
2022-11-04T08:09:40.720Z,3.3
2022-11-04T08:12:07.315Z,3.4
2022-11-04T08:14:33.909Z,3.3
2022-11-04T08:17:00.630Z,3.1
2022-11-04T08:19:27.251Z,3.6
2022-11-04T08:21:52.283Z,4.7
2022-11-04T08:24:17.434Z,6.6
2022-11-04T08:26:44.048Z,8.2
2022-11-04T08:29:10.674Z,8.1
2022-11-04T08:31:37.426Z,5.8
2022-11-04T08:34:03.978Z,5
2022-11-04T08:36:30.701Z,4.6
2022-11-04T08:38:57.190Z,4.7
2022-11-04T08:41:23.838Z,3.4
2022-11-04T08:43:50.410Z,3.4
2022-11-04T08:46:17.064Z,3.3
2022-11-04T08:48:43.908Z,3.8
2022-11-04T08:53:36.905Z,3.4
2022-11-04T08:56:02.008Z,3.7
2022-11-04T09:00:55.310Z,3.7
2022-11-04T09:03:21.916Z,4.1
2022-11-04T09:05:48.523Z,4.4
2022-11-04T09:08:15.153Z,3.9
2022-11-04T09:10:41.763Z,3.9
2022-11-04T09:15:35.014Z,4.1
2022-11-04T09:18:00.383Z,4.5
2022-11-04T09:20:25.378Z,4.2
2022-11-04T09:22:51.938Z,4.5
2022-11-04T09:25:18.502Z,4.2
2022-11-04T09:27:45.132Z,3.8
2022-11-04T09:30:11.784Z,3.9
2022-11-04T09:32:38.388Z,4.4
2022-11-04T09:35:05.022Z,5
2022-11-04T09:37:31.614Z,4
2022-11-04T09:39:58.283Z,4.5
2022-11-04T09:42:24.859Z,3.8
2022-11-04T09:44:51.487Z,3.1
2022-11-04T09:47:18.330Z,3.5
2022-11-04T09:49:43.259Z,3.6
2022-11-04T09:52:08.374Z,3.7
2022-11-04T09:54:34.985Z,3.2
2022-11-04T09:57:01.661Z,2.9
2022-11-04T09:59:28.240Z,3
2022-11-04T10:01:54.863Z,3.2
2022-11-04T10:04:21.497Z,3.2
2022-11-04T10:06:48.132Z,2.4
2022-11-04T10:09:14.777Z,2.4
2022-11-04T10:14:07.989Z,2.8
2022-11-04T10:16:34.603Z,2.6
2022-11-04T10:19:01.234Z,3
2022-11-04T10:21:27.844Z,2.6
2022-11-04T10:23:53.001Z,2.5
2022-11-04T10:28:46.223Z,2
2022-11-04T10:31:11.348Z,1.8
2022-11-04T10:33:36.520Z,1.6
2022-11-04T10:36:03.103Z,2
2022-11-04T10:38:29.760Z,2.2
2022-11-04T10:40:56.349Z,1.7
2022-11-04T10:43:22.971Z,1.6
2022-11-04T10:45:49.631Z,2.3
2022-11-04T10:48:16.214Z,1.4
2022-11-04T10:50:42.842Z,1.7
2022-11-04T10:53:09.461Z,1.7
2022-11-04T10:55:36.117Z,1.9
2022-11-04T10:58:02.820Z,1.3
2022-11-04T11:00:29.415Z,1.2
2022-11-04T11:05:21.159Z,1.5
2022-11-04T11:07:46.239Z,1.5
2022-11-04T11:12:39.458Z,1.1
2022-11-04T11:15:04.845Z,1.1
2022-11-04T11:17:29.709Z,1.2
2022-11-04T11:19:56.352Z,0.7
2022-11-04T11:22:22.997Z,0.7
2022-11-04T11:27:16.206Z,1
2022-11-04T11:29:42.901Z,0.9
2022-11-04T11:32:09.460Z,1.1
2022-11-04T11:34:36.116Z,0.9
2022-11-04T11:37:02.706Z,1.5
2022-11-04T11:39:29.336Z,1.1
2022-11-04T11:41:55.952Z,1
2022-11-04T11:44:22.580Z,0.9
2022-11-04T11:46:49.183Z,1.1
2022-11-04T11:49:14.337Z,1.2
2022-11-04T11:51:40.948Z,1
2022-11-04T11:56:34.188Z,0.8
2022-11-04T11:59:01.067Z,0.8
2022-11-04T12:03:54.082Z,1.3
2022-11-04T12:06:20.684Z,1.1
2022-11-04T12:08:47.336Z,1.2
2022-11-04T12:11:13.930Z,1
2022-11-04T12:13:40.547Z,1.2
2022-11-04T12:16:07.184Z,1.1
2022-11-04T12:18:33.791Z,1.2
2022-11-04T12:20:58.946Z,1.3
2022-11-04T12:23:25.550Z,1.3
2022-11-04T12:25:52.169Z,1.5
2022-11-04T12:28:18.849Z,1.4
2022-11-04T12:33:12.044Z,1.6
2022-11-04T12:35:38.660Z,1.8
2022-11-04T12:38:05.276Z,1.6
2022-11-04T12:40:31.907Z,1.6
2022-11-04T12:42:58.557Z,1.2
2022-11-04T12:45:25.169Z,1
2022-11-04T12:47:51.835Z,0.8
2022-11-04T12:50:18.429Z,1.4
2022-11-04T12:55:10.141Z,1.4
2022-11-04T12:57:36.794Z,1.1
2022-11-04T13:00:03.385Z,0.9
2022-11-04T13:02:30.039Z,0.8
2022-11-04T13:04:56.632Z,1.1
2022-11-04T13:09:49.881Z,1.6
2022-11-04T13:12:16.512Z,1.2
2022-11-04T13:14:43.111Z,1.2
2022-11-04T13:17:09.760Z,1.3
2022-11-04T13:19:36.374Z,1.4
2022-11-04T13:22:02.984Z,0.8
2022-11-04T13:24:28.157Z,0.8
2022-11-04T13:26:54.774Z,1.5
2022-11-04T13:29:21.422Z,1.3
2022-11-04T13:31:48.050Z,1.2
2022-11-04T13:34:14.616Z,1.1
2022-11-04T13:36:41.227Z,1
2022-11-04T13:39:07.851Z,1.2
2022-11-04T13:41:34.539Z,1.3
2022-11-04T13:44:01.083Z,1.4
2022-11-04T13:46:26.220Z,1.1
2022-11-04T13:48:51.349Z,1.3
2022-11-04T13:51:18.002Z,1.1
2022-11-04T13:53:44.604Z,1
2022-11-04T13:56:11.211Z,0.8
2022-11-04T13:58:37.841Z,0.9
2022-11-04T14:01:04.450Z,0.8
2022-11-04T14:03:31.083Z,0.8
2022-11-04T14:05:57.696Z,0.8
2022-11-04T14:08:24.324Z,1.2
2022-11-04T14:10:50.980Z,0.8
2022-11-04T14:13:16.085Z,1.2
2022-11-04T14:15:41.213Z,1.3
2022-11-04T14:20:34.442Z,0.8
2022-11-04T14:23:01.080Z,0.7
2022-11-04T14:25:27.838Z,1.3
2022-11-04T14:27:54.317Z,1.2
2022-11-04T14:30:20.951Z,1
2022-11-04T14:32:47.575Z,1.1
2022-11-04T14:35:14.190Z,1.1
2022-11-04T14:37:40.813Z,1
2022-11-04T14:40:07.455Z,0.8
2022-11-04T14:42:34.054Z,0.8
2022-11-04T14:45:00.789Z,1.8
2022-11-04T14:47:25.809Z,1.4
2022-11-04T14:49:52.427Z,1.5
2022-11-04T14:52:19.064Z,1.3
2022-11-04T14:54:45.683Z,1.1
2022-11-04T14:57:12.330Z,1.1
2022-11-04T14:59:38.919Z,1.1
2022-11-04T15:02:05.555Z,1
2022-11-04T15:04:32.159Z,1.3
2022-11-04T15:06:58.828Z,1.3
2022-11-04T15:09:25.418Z,1.3
2022-11-04T15:11:52.046Z,1.1
2022-11-04T15:14:18.678Z,1.1
2022-11-04T15:16:45.276Z,0.9
2022-11-04T15:19:10.414Z,1.6
2022-11-04T15:21:37.032Z,1.4
2022-11-04T15:24:03.656Z,2.1
2022-11-04T15:26:30.285Z,1.7
2022-11-04T15:28:56.887Z,1.6
2022-11-04T15:31:23.550Z,2
2022-11-04T15:33:50.173Z,1.6
2022-11-04T15:36:16.867Z,1.2
2022-11-04T15:38:43.392Z,1.1
2022-11-04T15:41:10.001Z,1.2
2022-11-04T15:43:36.631Z,1.2
2022-11-04T15:46:03.253Z,1.4
2022-11-04T15:48:29.876Z,1
2022-11-04T15:50:55.014Z,1.2
2022-11-04T15:53:21.719Z,1
2022-11-04T15:55:48.271Z,1.2
2022-11-04T15:58:14.858Z,1.5
2022-11-04T16:00:41.496Z,1.6
2022-11-04T16:03:08.117Z,1.6
2022-11-04T16:05:34.732Z,2.4
2022-11-04T16:08:01.361Z,2.3
2022-11-04T16:10:27.982Z,2.3
2022-11-04T16:12:54.603Z,1.4
2022-11-04T16:15:21.247Z,2.2
2022-11-04T16:17:47.863Z,2.9
2022-11-04T16:20:14.516Z,2.3
2022-11-04T16:22:39.612Z,2.4
2022-11-04T16:25:06.247Z,2.8
2022-11-04T16:27:32.881Z,3.1
2022-11-04T16:29:59.518Z,2.8
2022-11-04T16:34:52.748Z,2.5
2022-11-04T16:37:17.846Z,2.7
2022-11-04T16:39:44.496Z,2.8
2022-11-04T16:42:11.096Z,2.4
2022-11-04T16:44:37.720Z,2.1
2022-11-04T16:51:57.582Z,7.2
2022-11-04T16:54:22.724Z,5.6
2022-11-04T16:56:47.844Z,5
2022-11-04T16:59:14.527Z,4.6
2022-11-04T17:01:41.076Z,5.3
2022-11-04T17:04:07.716Z,4.4
2022-11-04T17:06:34.318Z,6.6
2022-11-04T17:09:00.951Z,5.8
2022-11-04T17:11:27.608Z,6.5
2022-11-04T17:13:54.201Z,6.5
2022-11-04T17:16:20.884Z,5.7
2022-11-04T17:18:47.453Z,5.7
2022-11-04T17:21:12.605Z,5
2022-11-04T17:23:37.720Z,4.1
2022-11-04T17:28:30.999Z,4.9
2022-11-04T17:30:57.611Z,4.5
2022-11-04T17:35:50.832Z,4.3
2022-11-04T17:38:17.437Z,4.2
2022-11-04T17:40:44.046Z,2.3
2022-11-04T17:43:10.671Z,2.4
2022-11-04T17:45:37.307Z,2.1
2022-11-04T17:48:03.927Z,1.9
2022-11-04T17:50:30.576Z,2.9
2022-11-04T17:52:55.705Z,2.5
2022-11-04T17:55:20.808Z,2.2
2022-11-04T17:57:47.428Z,2.5
2022-11-04T18:00:14.081Z,2.1
2022-11-04T18:02:40.680Z,2.1
2022-11-04T18:05:07.303Z,2.1
2022-11-04T18:07:33.956Z,2.3
2022-11-04T18:10:00.554Z,2.6
2022-11-04T18:12:27.173Z,1.8
2022-11-04T18:17:20.510Z,1.7
2022-11-04T18:19:47.068Z,2
2022-11-04T18:24:40.367Z,1.6
2022-11-04T18:27:05.464Z,2.1
2022-11-04T18:29:30.563Z,3.5
2022-11-04T18:31:57.253Z,4.5
2022-11-04T18:34:23.886Z,4.2
2022-11-04T18:36:50.450Z,5.3
2022-11-04T18:39:17.045Z,3.5
2022-11-04T18:41:43.659Z,3.9
2022-11-04T18:44:10.285Z,3.4
2022-11-04T18:46:36.906Z,3.1
2022-11-04T18:49:03.556Z,3.2
2022-11-04T18:51:30.223Z,4
2022-11-04T18:56:21.925Z,3.3
2022-11-04T18:58:47.040Z,2.6
2022-11-04T19:01:13.664Z,3
2022-11-04T19:03:40.282Z,4
2022-11-04T19:06:06.908Z,5.3
2022-11-04T19:08:33.521Z,2.5
2022-11-04T19:11:00.154Z,3
2022-11-04T19:13:26.805Z,3.2
2022-11-04T19:15:53.405Z,2.7
2022-11-04T19:18:20.031Z,2.9
2022-11-04T19:20:45.161Z,2.8
2022-11-04T19:23:10.287Z,3.1
2022-11-04T19:25:36.911Z,19.2
2022-11-04T19:28:03.524Z,20.4
2022-11-04T19:30:30.157Z,9.8
2022-11-04T19:32:56.853Z,11.1
2022-11-04T19:35:23.445Z,18.6
2022-11-04T19:37:50.067Z,11.5
2022-11-04T19:40:16.659Z,9
2022-11-04T19:42:43.287Z,2.4
2022-11-04T19:45:09.895Z,4.1
2022-11-04T19:47:35.031Z,4.1
2022-11-04T19:50:00.211Z,4.4
2022-11-04T19:52:26.785Z,4.6
2022-11-04T19:54:53.424Z,5.4
2022-11-04T19:59:46.688Z,5.6
2022-11-04T20:02:13.276Z,4.8
2022-11-04T20:09:33.258Z,3
2022-11-04T20:11:59.798Z,4.2
2022-11-04T20:14:26.383Z,4.3
2022-11-04T20:16:53.008Z,4.9
2022-11-04T20:19:19.684Z,4.7
2022-11-04T20:21:44.780Z,4.6
2022-11-04T20:24:09.910Z,5.2
2022-11-04T20:26:36.525Z,9
2022-11-04T20:29:03.148Z,12.2
2022-11-04T20:31:29.758Z,23.1
2022-11-04T20:33:56.438Z,15.5
2022-11-04T20:36:23.076Z,15.4
2022-11-04T20:38:49.719Z,17.1
2022-11-04T20:41:16.241Z,14.3
2022-11-04T20:43:42.898Z,13.4
2022-11-04T20:46:09.512Z,13.6
2022-11-04T20:48:34.625Z,11.8
2022-11-04T20:50:59.749Z,11.3
2022-11-04T20:53:26.382Z,10
2022-11-04T20:55:52.995Z,8.5
2022-11-04T20:58:19.664Z,7.8
2022-11-04T21:00:46.257Z,7
2022-11-04T21:03:12.873Z,4.4
2022-11-04T21:05:39.490Z,4
2022-11-04T21:08:06.113Z,4.5
2022-11-04T21:10:32.738Z,4.8
2022-11-04T21:12:59.370Z,3.4
2022-11-04T21:15:25.987Z,4.5
2022-11-04T21:17:52.610Z,4.2
2022-11-04T21:20:19.236Z,4.6
2022-11-04T21:22:44.354Z,4.6
2022-11-04T21:27:37.602Z,6.9
2022-11-04T21:30:04.271Z,6.1
2022-11-04T21:32:30.905Z,6.2
2022-11-04T21:34:57.473Z,5.2
2022-11-04T21:37:24.095Z,3.1
2022-11-04T21:39:50.713Z,4.1
2022-11-04T21:42:17.362Z,3
2022-11-04T21:44:43.968Z,3.8
2022-11-04T21:47:10.589Z,3.5
2022-11-04T21:49:37.241Z,3.6
2022-11-04T21:52:03.848Z,3.5
2022-11-04T21:54:28.961Z,3.7
2022-11-04T21:56:55.574Z,4.7
2022-11-04T21:59:22.298Z,6.1
2022-11-04T22:01:48.848Z,8.4
2022-11-04T22:04:15.484Z,7.6
2022-11-04T22:06:42.085Z,7.2
2022-11-04T22:09:08.740Z,6.7
2022-11-04T22:11:35.319Z,5.7
2022-11-04T22:14:01.952Z,6.7
2022-11-04T22:16:28.578Z,6.3
2022-11-04T22:18:55.181Z,6.6
2022-11-04T22:21:21.812Z,7.3
2022-11-04T22:26:15.059Z,6.2
2022-11-04T22:28:40.185Z,6.4
2022-11-04T22:31:06.800Z,6.7
2022-11-04T22:33:33.426Z,7.1
2022-11-04T22:36:00.089Z,6.9
2022-11-04T22:40:53.309Z,7.1
2022-11-04T22:43:19.951Z,6.3
2022-11-04T22:45:46.551Z,5.8
2022-11-04T22:48:13.172Z,6.5
2022-11-04T22:50:39.884Z,6.5
2022-11-04T22:53:06.418Z,6.6
2022-11-04T22:55:33.069Z,7.1
2022-11-04T22:57:59.661Z,7.3
2022-11-04T23:00:24.796Z,7.3
2022-11-04T23:02:51.407Z,7.2
2022-11-04T23:05:18.042Z,7.9
2022-11-04T23:10:11.285Z,7.9
2022-11-04T23:12:36.425Z,8.3
2022-11-04T23:15:01.561Z,8.3
2022-11-04T23:17:28.163Z,7.6
2022-11-04T23:22:21.417Z,7.8
2022-11-04T23:24:48.052Z,8.2
2022-11-04T23:27:14.667Z,7.3
2022-11-04T23:29:41.285Z,8
2022-11-04T23:32:07.925Z,7.9
2022-11-04T23:34:34.519Z,8.9
2022-11-04T23:41:54.403Z,8.7
2022-11-04T23:46:47.630Z,9.2
2022-11-04T23:49:12.778Z,8.7
2022-11-04T23:51:37.905Z,9
2022-11-04T23:54:04.525Z,8.3
2022-11-04T23:56:31.161Z,8.5
2022-11-04T23:58:57.762Z,8.3
